createdAt,value
2019-03-17T00:01:32.003Z,10.30
2019-03-17T00:03:51.788Z,10.30
2019-03-17T00:06:11.504Z,10.32
2019-03-17T00:08:31.324Z,10.33
2019-03-17T00:10:52.587Z,10.26
2019-03-17T00:13:12.858Z,10.25
2019-03-17T00:15:32.667Z,10.26
2019-03-17T00:17:52.577Z,10.35
2019-03-17T00:20:12.566Z,10.34
2019-03-17T00:22:32.400Z,10.34
2019-03-17T00:24:52.399Z,10.29
2019-03-17T00:27:12.326Z,10.27
2019-03-17T00:29:32.279Z,10.19
2019-03-17T00:31:52.199Z,10.23
2019-03-17T00:34:12.027Z,10.16
2019-03-17T00:36:31.814Z,10.04
2019-03-17T00:38:51.432Z,9.96
2019-03-17T00:41:11.195Z,9.94
2019-03-17T00:43:30.974Z,9.94
2019-03-17T00:45:50.760Z,9.92
2019-03-17T00:48:10.526Z,9.95
2019-03-17T00:50:30.315Z,9.95
2019-03-17T00:52:50.529Z,9.95
2019-03-17T00:55:10.357Z,9.95
2019-03-17T00:57:30.205Z,9.96
2019-03-17T00:59:49.979Z,9.96
2019-03-17T01:02:09.745Z,10.00
2019-03-17T01:04:29.485Z,9.99
2019-03-17T01:06:49.506Z,9.94
2019-03-17T01:09:09.472Z,9.90
2019-03-17T01:11:29.451Z,9.95
2019-03-17T01:13:49.406Z,10.01
2019-03-17T01:16:09.395Z,10.01
2019-03-17T01:18:29.525Z,10.02
2019-03-17T01:20:49.799Z,10.00
2019-03-17T01:23:09.729Z,10.08
2019-03-17T01:25:29.408Z,10.03
2019-03-17T01:27:49.182Z,10.13
2019-03-17T01:30:12.161Z,9.98
2019-03-17T01:32:32.146Z,10.02
2019-03-17T01:34:51.840Z,10.01
2019-03-17T01:37:11.673Z,10.00
2019-03-17T01:39:31.346Z,9.92
2019-03-17T01:41:51.159Z,10.05
2019-03-17T01:44:10.785Z,10.02
2019-03-17T01:46:30.638Z,10.03
2019-03-17T01:48:50.328Z,9.83
2019-03-17T01:51:09.995Z,10.04
2019-03-17T01:53:29.705Z,10.10
2019-03-17T01:55:49.593Z,9.93
2019-03-17T01:58:09.405Z,9.95
2019-03-17T02:00:29.315Z,10.00
2019-03-17T02:02:49.007Z,10.01
2019-03-17T02:05:20.966Z,10.03
2019-03-17T02:07:30.756Z,10.04
2019-03-17T02:09:50.730Z,10.04
2019-03-17T02:12:10.626Z,10.03
2019-03-17T02:14:30.600Z,9.87
2019-03-17T02:17:10.487Z,9.98
2019-03-17T02:19:30.580Z,9.95
2019-03-17T02:21:50.411Z,9.89
2019-03-17T02:24:10.211Z,9.93
2019-03-17T02:26:30.192Z,9.85
2019-03-17T02:28:50.104Z,9.81
2019-03-17T02:31:10.106Z,9.85
2019-03-17T02:33:29.954Z,9.84
2019-03-17T02:35:49.850Z,9.86
2019-03-17T02:38:09.708Z,9.79
2019-03-17T02:40:29.441Z,9.87
2019-03-17T02:42:49.321Z,9.93
2019-03-17T02:45:09.044Z,9.70
2019-03-17T02:47:29.146Z,9.62
2019-03-17T02:49:48.827Z,9.70
2019-03-17T02:52:28.470Z,9.72
2019-03-17T02:54:48.563Z,9.59
2019-03-17T02:57:08.457Z,9.64
2019-03-17T02:59:28.361Z,9.69
2019-03-17T03:01:48.226Z,9.55
2019-03-17T03:04:08.200Z,9.52
2019-03-17T03:06:28.238Z,9.44
2019-03-17T03:08:48.213Z,9.31
2019-03-17T03:11:08.192Z,9.33
2019-03-17T03:13:28.212Z,9.30
2019-03-17T03:15:47.983Z,9.23
2019-03-17T03:18:07.704Z,9.19
2019-03-17T03:20:27.530Z,9.11
2019-03-17T03:22:47.189Z,9.09
2019-03-17T03:25:07.921Z,9.07
2019-03-17T03:27:27.739Z,9.07
2019-03-17T03:29:47.428Z,9.08
2019-03-17T03:32:07.098Z,8.95
2019-03-17T03:34:26.879Z,9.00
2019-03-17T03:36:47.140Z,9.05
2019-03-17T03:39:06.803Z,9.10
2019-03-17T03:41:26.815Z,9.14
2019-03-17T03:43:46.826Z,9.05
2019-03-17T03:46:06.613Z,8.92
2019-03-17T03:48:26.581Z,8.97
2019-03-17T03:50:46.415Z,8.90
2019-03-17T03:53:06.203Z,8.87
2019-03-17T03:55:26.487Z,8.73
2019-03-17T03:57:46.408Z,8.73
2019-03-17T04:00:14.513Z,8.73
2019-03-17T04:02:34.655Z,8.64
2019-03-17T04:04:54.386Z,8.73
2019-03-17T04:07:14.149Z,8.83
2019-03-17T04:09:33.868Z,8.98
2019-03-17T04:11:53.778Z,8.92
2019-03-17T04:14:13.974Z,8.73
2019-03-17T04:18:32.347Z,8.86
2019-03-17T04:20:52.501Z,8.87
2019-03-17T04:23:12.419Z,8.83
2019-03-17T04:25:32.308Z,8.89
2019-03-17T04:27:52.276Z,8.89
2019-03-17T04:30:12.484Z,8.87
2019-03-17T04:32:32.293Z,8.86
2019-03-17T04:34:51.947Z,8.91
2019-03-17T04:37:11.780Z,8.90
2019-03-17T04:39:31.491Z,8.95
2019-03-17T04:41:51.289Z,8.97
2019-03-17T04:44:20.291Z,8.89
2019-03-17T04:46:33.233Z,8.94
2019-03-17T04:48:53.041Z,8.98
2019-03-17T04:51:13.140Z,9.02
2019-03-17T04:53:32.894Z,9.05
2019-03-17T04:55:52.570Z,9.03
2019-03-17T04:58:12.412Z,9.01
2019-03-17T05:00:32.258Z,9.14
2019-03-17T05:02:52.015Z,9.20
2019-03-17T05:05:11.844Z,9.19
2019-03-17T05:07:31.678Z,9.21
2019-03-17T05:09:51.393Z,9.24
2019-03-17T05:12:11.244Z,9.46
2019-03-17T05:14:31.085Z,9.33
2019-03-17T05:16:51.111Z,9.35
2019-03-17T05:19:11.278Z,9.29
2019-03-17T05:21:31.243Z,9.26
2019-03-17T05:23:51.267Z,9.31
2019-03-17T05:26:11.165Z,9.33
2019-03-17T05:28:30.877Z,9.22
2019-03-17T05:30:50.529Z,9.22
2019-03-17T05:33:10.193Z,9.26
2019-03-17T05:35:29.869Z,9.15
2019-03-17T05:37:49.654Z,9.12
2019-03-17T05:40:10.299Z,9.12
2019-03-17T05:42:30.191Z,9.17
2019-03-17T05:44:50.279Z,9.07
2019-03-17T05:47:10.094Z,9.04
2019-03-17T05:49:29.849Z,9.11
2019-03-17T05:51:49.762Z,9.23
2019-03-17T05:54:09.705Z,9.12
2019-03-17T05:56:29.492Z,9.13
2019-03-17T05:58:49.294Z,9.19
2019-03-17T06:01:09.054Z,9.14
2019-03-17T06:03:28.954Z,9.17
2019-03-17T06:05:48.729Z,9.20
2019-03-17T06:08:08.650Z,9.15
2019-03-17T06:10:28.661Z,9.12
2019-03-17T06:12:48.645Z,9.11
2019-03-17T06:15:10.219Z,9.09
2019-03-17T06:17:30.464Z,9.13
2019-03-17T06:19:50.734Z,9.16
2019-03-17T06:22:10.531Z,9.10
2019-03-17T06:24:30.398Z,9.18
2019-03-17T06:26:50.499Z,9.26
2019-03-17T06:29:10.202Z,9.29
2019-03-17T06:31:29.974Z,9.34
2019-03-17T06:33:49.797Z,9.33
2019-03-17T06:36:09.625Z,9.31
2019-03-17T06:38:29.750Z,9.33
2019-03-17T06:40:49.507Z,9.40
2019-03-17T06:43:09.316Z,9.47
2019-03-17T06:45:29.114Z,9.50
2019-03-17T06:47:48.966Z,9.52
2019-03-17T06:50:12.182Z,9.60
2019-03-17T06:52:32.235Z,9.72
2019-03-17T06:54:52.062Z,9.83
2019-03-17T06:57:11.980Z,9.92
2019-03-17T06:59:31.766Z,10.07
2019-03-17T07:01:51.509Z,10.12
2019-03-17T07:04:11.313Z,10.09
2019-03-17T07:06:31.086Z,10.15
2019-03-17T07:08:50.905Z,10.06
2019-03-17T07:11:11.120Z,10.30
2019-03-17T07:13:31.316Z,10.25
2019-03-17T07:15:51.285Z,10.32
2019-03-17T07:18:11.278Z,10.30
2019-03-17T07:20:31.199Z,10.38
2019-03-17T07:22:51.067Z,10.42
2019-03-17T07:25:11.428Z,10.50
2019-03-17T07:27:31.118Z,10.46
2019-03-17T07:29:50.909Z,10.53
2019-03-17T07:32:10.699Z,10.67
2019-03-17T07:34:30.564Z,10.85
2019-03-17T07:36:50.382Z,10.83
2019-03-17T07:39:11.993Z,10.90
2019-03-17T07:41:31.962Z,11.13
2019-03-17T07:43:51.734Z,11.16
2019-03-17T07:46:11.489Z,11.32
2019-03-17T07:48:31.145Z,11.39
2019-03-17T07:50:51.004Z,11.52
2019-03-17T07:53:10.723Z,11.64
2019-03-17T07:55:30.411Z,11.68
2019-03-17T07:57:50.243Z,11.87
2019-03-17T08:00:12.808Z,11.93
2019-03-17T08:02:32.874Z,11.98
2019-03-17T08:04:52.727Z,12.03
2019-03-17T08:07:12.969Z,12.04
2019-03-17T08:09:32.704Z,12.00
2019-03-17T08:11:52.503Z,12.13
2019-03-17T08:14:12.433Z,12.25
2019-03-17T08:16:32.363Z,12.35
2019-03-17T08:18:52.382Z,12.34
2019-03-17T08:21:12.378Z,12.47
2019-03-17T08:23:32.332Z,12.54
2019-03-17T08:25:52.160Z,12.66
2019-03-17T08:28:11.924Z,12.66
2019-03-17T08:30:31.826Z,12.75
2019-03-17T08:32:51.885Z,12.85
2019-03-17T08:35:11.706Z,12.80
2019-03-17T08:37:31.478Z,12.99
2019-03-17T08:39:51.149Z,13.07
2019-03-17T08:42:11.000Z,12.91
2019-03-17T08:44:30.785Z,13.08
2019-03-17T08:46:50.618Z,13.29
2019-03-17T08:49:10.265Z,13.14
2019-03-17T08:51:30.160Z,13.32
2019-03-17T08:53:50.022Z,13.33
2019-03-17T08:56:09.750Z,13.49
2019-03-17T08:58:29.469Z,13.75
2019-03-17T09:00:49.445Z,13.67
2019-03-17T09:03:09.398Z,13.60
2019-03-17T09:05:29.347Z,13.76
2019-03-17T09:07:49.385Z,13.74
2019-03-17T09:10:13.930Z,13.80
2019-03-17T09:12:33.827Z,13.79
2019-03-17T09:14:53.706Z,13.94
2019-03-17T09:17:14.822Z,14.02
2019-03-17T09:19:35.031Z,14.01
2019-03-17T09:21:54.957Z,14.19
2019-03-17T09:24:17.469Z,14.14
2019-03-17T09:26:36.897Z,14.36
2019-03-17T09:28:56.838Z,14.26
2019-03-17T09:31:16.700Z,14.03
2019-03-17T09:33:36.672Z,14.04
2019-03-17T09:35:56.671Z,14.28
2019-03-17T09:38:16.416Z,14.20
2019-03-17T09:40:36.360Z,14.05
2019-03-17T09:42:56.303Z,13.98
2019-03-17T09:45:16.123Z,14.05
2019-03-17T09:47:36.009Z,14.43
2019-03-17T09:49:56.056Z,14.31
2019-03-17T09:52:15.877Z,14.21
2019-03-17T09:54:35.688Z,14.42
2019-03-17T09:56:55.437Z,14.50
2019-03-17T09:59:15.315Z,14.54
2019-03-17T10:01:35.179Z,14.69
2019-03-17T10:03:54.998Z,14.85
2019-03-17T10:06:14.787Z,14.93
2019-03-17T10:08:34.598Z,14.76
2019-03-17T10:10:54.377Z,14.61
2019-03-17T10:13:14.126Z,14.49
2019-03-17T10:15:33.930Z,14.48
2019-03-17T10:17:53.817Z,14.33
2019-03-17T10:20:18.259Z,14.15
2019-03-17T10:22:39.867Z,14.15
2019-03-17T10:25:00.111Z,14.06
2019-03-17T10:27:20.342Z,13.99
2019-03-17T10:29:40.041Z,14.04
2019-03-17T10:31:59.681Z,14.08
2019-03-17T10:34:19.625Z,14.16
2019-03-17T10:36:39.427Z,14.14
2019-03-17T10:39:11.668Z,14.17
2019-03-17T10:41:21.373Z,14.18
2019-03-17T10:43:41.210Z,14.25
2019-03-17T10:46:01.538Z,14.40
2019-03-17T10:48:21.465Z,14.38
2019-03-17T10:50:49.453Z,14.49
2019-03-17T10:53:03.428Z,14.41
2019-03-17T10:55:23.376Z,14.58
2019-03-17T10:57:43.299Z,14.49
2019-03-17T11:00:08.920Z,14.41
2019-03-17T11:02:28.793Z,14.40
2019-03-17T11:04:48.667Z,14.28
2019-03-17T11:07:08.501Z,14.21
2019-03-17T11:09:28.296Z,14.27
2019-03-17T11:11:48.120Z,14.44
2019-03-17T11:14:07.995Z,14.35
2019-03-17T11:16:28.080Z,14.39
2019-03-17T11:18:48.031Z,14.19
2019-03-17T11:21:07.944Z,14.06
2019-03-17T11:23:27.700Z,14.04
2019-03-17T11:25:47.330Z,13.99
2019-03-17T11:28:07.245Z,13.93
2019-03-17T11:30:26.936Z,13.96
2019-03-17T11:32:46.731Z,13.93
2019-03-17T11:35:06.503Z,13.97
2019-03-17T11:37:26.285Z,13.96
2019-03-17T11:39:46.094Z,13.90
2019-03-17T11:42:05.844Z,13.90
2019-03-17T11:44:25.600Z,13.96
2019-03-17T11:46:45.274Z,13.91
2019-03-17T11:49:05.076Z,13.94
2019-03-17T11:51:24.943Z,13.87
2019-03-17T11:53:44.772Z,13.89
2019-03-17T11:56:04.703Z,13.93
2019-03-17T11:58:24.544Z,13.90
2019-03-17T12:00:44.494Z,13.87
2019-03-17T12:03:04.535Z,13.86
2019-03-17T12:05:24.397Z,13.86
2019-03-17T12:07:44.420Z,13.87
2019-03-17T12:10:20.967Z,13.89
2019-03-17T12:12:41.278Z,13.97
2019-03-17T12:15:01.176Z,13.87
2019-03-17T12:17:20.807Z,13.90
2019-03-17T12:19:40.628Z,13.87
2019-03-17T12:22:09.048Z,13.92
2019-03-17T12:24:22.250Z,13.82
2019-03-17T12:26:41.995Z,13.80
2019-03-17T12:29:01.798Z,13.85
2019-03-17T12:31:21.509Z,13.75
2019-03-17T12:33:41.235Z,13.75
2019-03-17T12:36:01.148Z,13.70
2019-03-17T12:38:20.911Z,13.74
2019-03-17T12:40:40.774Z,13.73
2019-03-17T12:43:00.456Z,13.77
2019-03-17T12:45:20.223Z,13.72
2019-03-17T12:47:39.936Z,13.73
2019-03-17T12:49:59.748Z,13.78
2019-03-17T12:52:19.556Z,13.73
2019-03-17T12:54:39.558Z,13.74
2019-03-17T12:56:59.546Z,13.76
2019-03-17T12:59:19.512Z,13.70
2019-03-17T13:01:39.502Z,13.69
2019-03-17T13:03:59.357Z,13.58
2019-03-17T13:06:19.142Z,13.47
2019-03-17T13:08:38.900Z,12.31
2019-03-17T13:10:58.596Z,11.16
2019-03-17T13:13:18.296Z,10.36
2019-03-17T13:15:38.047Z,9.82
2019-03-17T13:17:57.864Z,9.46
2019-03-17T13:20:19.251Z,9.33
2019-03-17T13:22:38.747Z,9.28
2019-03-17T13:24:58.474Z,9.25
2019-03-17T13:27:18.177Z,9.13
2019-03-17T13:29:37.966Z,9.09
2019-03-17T13:31:57.636Z,8.90
2019-03-17T13:34:17.413Z,8.88
2019-03-17T13:36:37.101Z,8.82
2019-03-17T13:38:56.839Z,8.84
2019-03-17T13:41:16.745Z,8.80
2019-03-17T13:43:36.699Z,8.75
2019-03-17T13:45:56.585Z,8.79
2019-03-17T13:48:16.655Z,8.78
2019-03-17T13:50:36.621Z,8.75
2019-03-17T13:52:56.518Z,8.77
2019-03-17T13:55:16.371Z,8.80
2019-03-17T13:57:36.054Z,8.74
2019-03-17T13:59:55.850Z,8.84
2019-03-17T14:02:15.562Z,8.85
2019-03-17T14:04:35.270Z,8.85
2019-03-17T14:06:54.949Z,8.81
2019-03-17T14:09:14.717Z,8.78
2019-03-17T14:11:34.460Z,8.80
2019-03-17T14:13:54.114Z,8.87
2019-03-17T14:16:15.770Z,8.90
2019-03-17T14:18:35.806Z,9.03
2019-03-17T14:20:55.605Z,9.03
2019-03-17T14:23:15.262Z,9.13
2019-03-17T14:25:37.239Z,9.17
2019-03-17T14:27:57.015Z,9.18
2019-03-17T14:30:16.721Z,9.27
2019-03-17T14:32:36.558Z,9.29
2019-03-17T14:34:56.255Z,9.23
2019-03-17T14:37:16.060Z,9.25
2019-03-17T14:39:35.889Z,9.24
2019-03-17T14:41:56.071Z,9.24
2019-03-17T14:44:16.070Z,9.21
2019-03-17T14:46:35.880Z,9.21
2019-03-17T14:48:56.227Z,9.17
2019-03-17T14:51:16.001Z,9.11
2019-03-17T14:53:35.887Z,9.13
2019-03-17T14:55:55.706Z,9.21
2019-03-17T14:58:15.501Z,9.08
2019-03-17T15:00:35.187Z,9.15
2019-03-17T15:02:54.875Z,9.19
2019-03-17T15:05:14.570Z,9.25
2019-03-17T15:07:34.258Z,9.15
2019-03-17T15:09:54.078Z,9.20
2019-03-17T15:12:13.857Z,9.17
2019-03-17T15:14:33.659Z,9.29
2019-03-17T15:16:53.371Z,9.36
2019-03-17T15:19:13.156Z,9.41
2019-03-17T15:21:33.011Z,9.37
2019-03-17T15:23:52.746Z,9.47
2019-03-17T15:26:12.715Z,9.43
2019-03-17T15:28:32.704Z,9.50
2019-03-17T15:31:09.735Z,9.39
2019-03-17T15:33:14.868Z,9.42
2019-03-17T15:35:34.702Z,9.56
2019-03-17T15:37:54.587Z,9.55
2019-03-17T15:40:16.595Z,9.56
2019-03-17T15:42:36.534Z,9.59
2019-03-17T15:44:56.455Z,9.52
2019-03-17T15:47:16.542Z,9.69
2019-03-17T15:49:36.419Z,9.75
2019-03-17T15:51:56.235Z,9.73
2019-03-17T15:54:16.016Z,9.77
2019-03-17T15:56:36.839Z,9.52
2019-03-17T15:58:56.454Z,9.72
2019-03-17T16:01:16.205Z,9.67
2019-03-17T16:03:35.988Z,9.70
2019-03-17T16:05:55.697Z,9.47
2019-03-17T16:08:15.429Z,9.52
2019-03-17T16:10:35.135Z,9.46
2019-03-17T16:12:54.930Z,9.48
2019-03-17T16:15:15.201Z,9.54
2019-03-17T16:17:35.095Z,9.55
2019-03-17T16:19:55.037Z,9.46
2019-03-17T16:22:14.970Z,9.42
2019-03-17T16:24:34.750Z,9.34
2019-03-17T16:26:54.561Z,9.30
2019-03-17T16:29:14.437Z,9.48
2019-03-17T16:31:34.386Z,9.31
2019-03-17T16:33:54.306Z,9.40
2019-03-17T16:36:14.221Z,9.45
2019-03-17T16:38:34.091Z,9.40
2019-03-17T16:40:53.971Z,9.38
2019-03-17T16:43:13.750Z,9.38
2019-03-17T16:45:33.475Z,9.36
2019-03-17T16:47:53.794Z,9.34
2019-03-17T16:50:19.670Z,9.29
2019-03-17T16:52:39.634Z,9.36
2019-03-17T16:54:59.558Z,9.38
2019-03-17T16:57:19.510Z,9.30
2019-03-17T16:59:39.520Z,9.27
2019-03-17T17:01:59.410Z,9.27
2019-03-17T17:04:19.281Z,9.27
2019-03-17T17:06:38.929Z,9.26
2019-03-17T17:08:58.878Z,9.24
2019-03-17T17:11:18.705Z,9.27
2019-03-17T17:13:38.390Z,9.32
2019-03-17T17:15:58.118Z,9.30
2019-03-17T17:18:17.799Z,9.36
2019-03-17T17:20:38.900Z,9.36
2019-03-17T17:22:59.019Z,9.35
2019-03-17T17:25:19.150Z,9.43
2019-03-17T17:27:39.115Z,9.42
2019-03-17T17:29:59.491Z,9.38
2019-03-17T17:32:19.394Z,9.32
2019-03-17T17:34:39.476Z,9.38
2019-03-17T17:36:59.338Z,9.35
2019-03-17T17:39:19.110Z,9.32
2019-03-17T17:41:38.912Z,9.29
2019-03-17T17:43:59.041Z,9.30
2019-03-17T17:46:19.241Z,9.24
2019-03-17T17:48:39.221Z,9.22
2019-03-17T17:50:59.169Z,9.16
2019-03-17T17:53:19.132Z,9.16
2019-03-17T17:55:39.160Z,9.13
2019-03-17T17:57:59.271Z,9.05
2019-03-17T18:00:21.835Z,9.08
2019-03-17T18:02:42.291Z,8.96
2019-03-17T18:05:05.866Z,8.85
2019-03-17T18:07:25.774Z,8.76
2019-03-17T18:09:45.659Z,8.72
2019-03-17T18:12:05.513Z,8.63
2019-03-17T18:14:25.499Z,8.50
2019-03-17T18:16:45.565Z,8.38
2019-03-17T18:19:05.518Z,8.33
2019-03-17T18:21:25.493Z,8.22
2019-03-17T18:23:45.303Z,8.19
2019-03-17T18:26:05.173Z,8.18
2019-03-17T18:28:24.929Z,8.10
2019-03-17T18:30:44.559Z,8.04
2019-03-17T18:33:04.349Z,7.94
2019-03-17T18:35:24.057Z,7.90
2019-03-17T18:37:43.761Z,7.85
2019-03-17T18:40:13.329Z,7.84
2019-03-17T18:42:33.578Z,7.75
2019-03-17T18:44:53.650Z,7.72
2019-03-17T18:47:13.604Z,7.68
2019-03-17T18:49:33.694Z,7.62
2019-03-17T18:51:53.664Z,7.55
2019-03-17T18:54:13.575Z,7.57
2019-03-17T18:56:33.335Z,7.49
2019-03-17T18:58:53.125Z,7.44
2019-03-17T19:01:12.752Z,7.45
2019-03-17T19:03:32.428Z,7.52
2019-03-17T19:05:52.163Z,7.56
2019-03-17T19:08:11.886Z,7.47
2019-03-17T19:10:31.670Z,7.43
2019-03-17T19:12:51.560Z,7.46
2019-03-17T19:15:36.138Z,7.46
2019-03-17T19:17:55.976Z,7.47
2019-03-17T19:20:20.450Z,7.41
2019-03-17T19:22:40.529Z,7.39
2019-03-17T19:25:00.703Z,7.32
2019-03-17T19:27:20.472Z,7.41
2019-03-17T19:29:40.248Z,7.40
2019-03-17T19:32:00.041Z,7.29
2019-03-17T19:34:19.982Z,7.36
2019-03-17T19:36:39.873Z,7.31
2019-03-17T19:38:59.858Z,7.42
2019-03-17T19:41:19.819Z,7.39
2019-03-17T19:43:39.850Z,7.32
2019-03-17T19:46:00.752Z,7.34
2019-03-17T19:48:20.655Z,7.24
2019-03-17T19:50:40.788Z,7.36
2019-03-17T19:53:00.527Z,7.35
2019-03-17T19:55:20.323Z,7.33
2019-03-17T19:57:40.035Z,7.32
2019-03-17T19:59:59.769Z,7.32
2019-03-17T20:02:19.588Z,7.32
2019-03-17T20:04:39.321Z,7.24
2019-03-17T20:06:59.166Z,7.29
2019-03-17T20:09:19.381Z,7.26
2019-03-17T20:11:39.094Z,7.30
2019-03-17T20:13:58.948Z,7.33
2019-03-17T20:16:18.757Z,7.39
2019-03-17T20:18:41.266Z,7.35
2019-03-17T20:21:00.249Z,7.34
2019-03-17T20:23:21.494Z,7.30
2019-03-17T20:26:01.343Z,7.31
2019-03-17T20:28:21.597Z,7.32
2019-03-17T20:30:41.439Z,7.30
2019-03-17T20:33:01.266Z,7.27
2019-03-17T20:35:20.965Z,7.23
2019-03-17T20:37:40.910Z,7.15
2019-03-17T20:40:01.588Z,7.18
2019-03-17T20:42:21.409Z,7.13
2019-03-17T20:44:41.209Z,7.09
2019-03-17T20:47:00.907Z,7.02
2019-03-17T20:49:21.089Z,7.05
2019-03-17T20:51:40.702Z,6.98
2019-03-17T20:54:00.505Z,7.06
2019-03-17T20:56:20.477Z,7.05
2019-03-17T20:58:40.312Z,7.02
2019-03-17T21:01:00.273Z,7.01
2019-03-17T21:03:19.902Z,6.95
2019-03-17T21:05:39.801Z,6.98
2019-03-17T21:07:59.619Z,6.90
2019-03-17T21:10:19.519Z,6.95
2019-03-17T21:12:39.529Z,6.92
2019-03-17T21:14:59.488Z,6.92
2019-03-17T21:17:19.597Z,6.95
2019-03-17T21:19:39.609Z,6.91
2019-03-17T21:21:59.437Z,6.96
2019-03-17T21:24:19.231Z,6.90
2019-03-17T21:26:39.653Z,6.95
2019-03-17T21:28:59.485Z,6.90
2019-03-17T21:31:19.305Z,6.84
2019-03-17T21:33:40.291Z,6.72
2019-03-17T21:36:00.406Z,6.71
2019-03-17T21:38:20.096Z,6.82
2019-03-17T21:40:56.152Z,6.77
2019-03-17T21:43:01.518Z,6.78
2019-03-17T21:45:21.206Z,6.70
2019-03-17T21:47:41.021Z,6.73
2019-03-17T21:50:00.772Z,6.63
2019-03-17T21:52:20.531Z,6.69
2019-03-17T21:54:40.298Z,6.81
2019-03-17T21:57:00.091Z,6.70
2019-03-17T21:59:19.829Z,6.56
2019-03-17T22:01:39.618Z,6.63
2019-03-17T22:03:59.487Z,6.51
2019-03-17T22:06:19.389Z,6.53
2019-03-17T22:08:39.227Z,6.57
2019-03-17T22:10:59.181Z,6.56
2019-03-17T22:13:19.146Z,6.45
2019-03-17T22:15:58.835Z,6.57
2019-03-17T22:18:18.722Z,6.40
2019-03-17T22:20:38.458Z,6.40
2019-03-17T22:22:58.147Z,6.35
2019-03-17T22:25:17.798Z,6.33
2019-03-17T22:27:37.473Z,6.33
2019-03-17T22:29:57.293Z,6.33
2019-03-17T22:32:17.022Z,6.25
2019-03-17T22:34:36.950Z,6.28
2019-03-17T22:36:56.846Z,6.37
2019-03-17T22:39:16.660Z,6.26
2019-03-17T22:41:36.444Z,6.22
2019-03-17T22:43:56.380Z,6.32
2019-03-17T22:46:16.216Z,6.26
2019-03-17T22:48:36.148Z,6.38
2019-03-17T22:50:56.140Z,6.28
2019-03-17T22:53:16.555Z,6.32
2019-03-17T22:55:36.408Z,6.20
2019-03-17T22:57:59.064Z,6.30
2019-03-17T23:00:33.685Z,6.33
2019-03-17T23:02:53.630Z,6.33
2019-03-17T23:05:13.714Z,6.28
2019-03-17T23:07:33.978Z,6.25
2019-03-17T23:09:53.852Z,6.23
2019-03-17T23:12:13.426Z,6.22
2019-03-17T23:14:37.040Z,6.18
2019-03-17T23:16:55.110Z,6.16
2019-03-17T23:19:14.925Z,6.12
2019-03-17T23:21:34.674Z,6.16
2019-03-17T23:23:54.344Z,6.12
2019-03-17T23:26:14.095Z,6.12
2019-03-17T23:28:33.912Z,6.10
2019-03-17T23:30:53.679Z,6.05
2019-03-17T23:33:13.465Z,6.06
2019-03-17T23:35:33.227Z,6.08
2019-03-17T23:37:53.079Z,6.01
2019-03-17T23:40:15.616Z,6.10
2019-03-17T23:42:35.616Z,6.13
2019-03-17T23:44:55.369Z,6.09
2019-03-17T23:47:15.103Z,6.09
2019-03-17T23:49:34.891Z,6.03
2019-03-17T23:51:54.610Z,5.96
2019-03-17T23:54:14.656Z,5.87
2019-03-17T23:56:34.542Z,5.87
2019-03-17T23:58:54.500Z,5.95
